sensor_id;sensor_type;location;lat;lon;timestamp;P1;durP1;ratioP1;P2;durP2;ratioP2
9108;SDS011;4590;51.462;6.692;2023-02-28T00:00:34;6.63;;;3.90;;
9108;SDS011;4590;51.462;6.692;2023-02-28T00:05:26;6.38;;;3.97;;
9108;SDS011;4590;51.462;6.692;2023-02-28T00:07:52;7.70;;;4.13;;
9108;SDS011;4590;51.462;6.692;2023-02-28T00:10:23;7.18;;;3.75;;
9108;SDS011;4590;51.462;6.692;2023-02-28T00:12:51;7.57;;;4.45;;
9108;SDS011;4590;51.462;6.692;2023-02-28T00:15:17;6.47;;;3.90;;
9108;SDS011;4590;51.462;6.692;2023-02-28T00:17:43;7.07;;;4.10;;
9108;SDS011;4590;51.462;6.692;2023-02-28T00:20:08;6.53;;;4.00;;
9108;SDS011;4590;51.462;6.692;2023-02-28T00:22:37;6.38;;;4.00;;
9108;SDS011;4590;51.462;6.692;2023-02-28T00:25:10;7.00;;;4.57;;
9108;SDS011;4590;51.462;6.692;2023-02-28T00:27:38;8.40;;;4.32;;
9108;SDS011;4590;51.462;6.692;2023-02-28T00:30:04;7.38;;;4.28;;
9108;SDS011;4590;51.462;6.692;2023-02-28T00:32:31;6.47;;;3.92;;
9108;SDS011;4590;51.462;6.692;2023-02-28T00:34:56;8.33;;;4.00;;
9108;SDS011;4590;51.462;6.692;2023-02-28T00:37:22;11.27;;;4.13;;
9108;SDS011;4590;51.462;6.692;2023-02-28T00:39:48;6.88;;;3.95;;
9108;SDS011;4590;51.462;6.692;2023-02-28T00:42:13;8.27;;;4.40;;
9108;SDS011;4590;51.462;6.692;2023-02-28T00:44:39;6.27;;;3.57;;
9108;SDS011;4590;51.462;6.692;2023-02-28T00:47:04;7.47;;;3.50;;
9108;SDS011;4590;51.462;6.692;2023-02-28T00:49:29;6.30;;;3.60;;
9108;SDS011;4590;51.462;6.692;2023-02-28T00:51:55;7.50;;;3.60;;
9108;SDS011;4590;51.462;6.692;2023-02-28T00:54:20;8.07;;;3.50;;
9108;SDS011;4590;51.462;6.692;2023-02-28T00:56:47;8.02;;;3.55;;
9108;SDS011;4590;51.462;6.692;2023-02-28T00:59:13;10.68;;;3.75;;
9108;SDS011;4590;51.462;6.692;2023-02-28T01:01:39;6.57;;;3.80;;
9108;SDS011;4590;51.462;6.692;2023-02-28T01:04:04;9.37;;;3.60;;
9108;SDS011;4590;51.462;6.692;2023-02-28T01:06:29;7.43;;;3.47;;
9108;SDS011;4590;51.462;6.692;2023-02-28T01:08:55;6.57;;;3.40;;
9108;SDS011;4590;51.462;6.692;2023-02-28T01:11:20;6.37;;;3.63;;
9108;SDS011;4590;51.462;6.692;2023-02-28T01:13:46;6.97;;;3.10;;
9108;SDS011;4590;51.462;6.692;2023-02-28T01:16:12;5.30;;;3.27;;
9108;SDS011;4590;51.462;6.692;2023-02-28T01:18:38;3.88;;;2.40;;
9108;SDS011;4590;51.462;6.692;2023-02-28T01:21:08;4.97;;;2.92;;
9108;SDS011;4590;51.462;6.692;2023-02-28T01:23:36;4.88;;;3.15;;
9108;SDS011;4590;51.462;6.692;2023-02-28T01:26:08;4.77;;;3.20;;
9108;SDS011;4590;51.462;6.692;2023-02-28T01:28:35;6.22;;;2.90;;
9108;SDS011;4590;51.462;6.692;2023-02-28T01:31:01;5.68;;;3.03;;
9108;SDS011;4590;51.462;6.692;2023-02-28T01:33:27;7.80;;;3.13;;
9108;SDS011;4590;51.462;6.692;2023-02-28T01:35:59;5.45;;;2.97;;
9108;SDS011;4590;51.462;6.692;2023-02-28T01:38:26;5.72;;;3.17;;
9108;SDS011;4590;51.462;6.692;2023-02-28T01:40:52;5.53;;;3.40;;
9108;SDS011;4590;51.462;6.692;2023-02-28T01:43:22;5.47;;;3.38;;
9108;SDS011;4590;51.462;6.692;2023-02-28T01:45:49;7.25;;;3.03;;
9108;SDS011;4590;51.462;6.692;2023-02-28T01:50:42;4.65;;;3.03;;
9108;SDS011;4590;51.462;6.692;2023-02-28T01:53:10;8.88;;;3.17;;
9108;SDS011;4590;51.462;6.692;2023-02-28T01:55:40;4.80;;;2.88;;
9108;SDS011;4590;51.462;6.692;2023-02-28T01:58:10;7.07;;;4.00;;
9108;SDS011;4590;51.462;6.692;2023-02-28T02:00:35;6.05;;;3.13;;
9108;SDS011;4590;51.462;6.692;2023-02-28T02:03:05;6.60;;;2.90;;
9108;SDS011;4590;51.462;6.692;2023-02-28T02:05:33;6.38;;;3.28;;
9108;SDS011;4590;51.462;6.692;2023-02-28T02:08:03;5.32;;;3.00;;
9108;SDS011;4590;51.462;6.692;2023-02-28T02:10:32;6.05;;;3.60;;
9108;SDS011;4590;51.462;6.692;2023-02-28T02:18:27;5.78;;;3.67;;
9108;SDS011;4590;51.462;6.692;2023-02-28T02:23:51;5.57;;;3.53;;
9108;SDS011;4590;51.462;6.692;2023-02-28T02:26:45;6.75;;;2.90;;
9108;SDS011;4590;51.462;6.692;2023-02-28T02:40:26;5.38;;;3.50;;
9108;SDS011;4590;51.462;6.692;2023-02-28T02:43:22;4.40;;;3.00;;
9108;SDS011;4590;51.462;6.692;2023-02-28T02:45:54;5.07;;;3.15;;
9108;SDS011;4590;51.462;6.692;2023-02-28T02:48:25;5.28;;;3.13;;
9108;SDS011;4590;51.462;6.692;2023-02-28T02:50:55;6.18;;;3.60;;
9108;SDS011;4590;51.462;6.692;2023-02-28T02:53:25;5.80;;;3.33;;
9108;SDS011;4590;51.462;6.692;2023-02-28T02:55:55;5.70;;;2.83;;
9108;SDS011;4590;51.462;6.692;2023-02-28T02:58:24;5.15;;;2.90;;
9108;SDS011;4590;51.462;6.692;2023-02-28T03:00:56;4.88;;;3.15;;
9108;SDS011;4590;51.462;6.692;2023-02-28T03:03:24;7.93;;;3.53;;
9108;SDS011;4590;51.462;6.692;2023-02-28T03:05:57;5.13;;;2.70;;
9108;SDS011;4590;51.462;6.692;2023-02-28T03:08:24;5.30;;;3.10;;
9108;SDS011;4590;51.462;6.692;2023-02-28T03:10:50;8.45;;;3.67;;
9108;SDS011;4590;51.462;6.692;2023-02-28T03:13:23;5.53;;;3.10;;
9108;SDS011;4590;51.462;6.692;2023-02-28T03:21:19;6.13;;;3.15;;
9108;SDS011;4590;51.462;6.692;2023-02-28T03:23:56;5.90;;;3.35;;
9108;SDS011;4590;51.462;6.692;2023-02-28T03:26:29;5.97;;;2.95;;
9108;SDS011;4590;51.462;6.692;2023-02-28T03:29:03;6.32;;;2.70;;
9108;SDS011;4590;51.462;6.692;2023-02-28T03:31:38;5.03;;;2.63;;
9108;SDS011;4590;51.462;6.692;2023-02-28T03:34:08;5.95;;;3.10;;
9108;SDS011;4590;51.462;6.692;2023-02-28T03:36:39;6.10;;;2.88;;
9108;SDS011;4590;51.462;6.692;2023-02-28T03:39:11;4.50;;;2.33;;
9108;SDS011;4590;51.462;6.692;2023-02-28T03:41:54;4.05;;;2.42;;
9108;SDS011;4590;51.462;6.692;2023-02-28T03:47:24;6.95;;;2.60;;
9108;SDS011;4590;51.462;6.692;2023-02-28T03:50:03;3.50;;;2.30;;
9108;SDS011;4590;51.462;6.692;2023-02-28T03:52:38;4.72;;;2.88;;
9108;SDS011;4590;51.462;6.692;2023-02-28T03:55:10;5.57;;;2.90;;
9108;SDS011;4590;51.462;6.692;2023-02-28T04:00:34;5.18;;;2.95;;
9108;SDS011;4590;51.462;6.692;2023-02-28T04:03:03;4.50;;;2.75;;
9108;SDS011;4590;51.462;6.692;2023-02-28T04:05:29;4.88;;;2.78;;
9108;SDS011;4590;51.462;6.692;2023-02-28T04:08:03;4.88;;;2.78;;
9108;SDS011;4590;51.462;6.692;2023-02-28T04:10:29;5.18;;;3.00;;
9108;SDS011;4590;51.462;6.692;2023-02-28T04:12:55;4.40;;;2.80;;
9108;SDS011;4590;51.462;6.692;2023-02-28T04:15:20;7.07;;;3.07;;
9108;SDS011;4590;51.462;6.692;2023-02-28T04:17:47;5.28;;;3.05;;
9108;SDS011;4590;51.462;6.692;2023-02-28T04:20:13;5.73;;;2.97;;
9108;SDS011;4590;51.462;6.692;2023-02-28T04:22:38;6.17;;;3.20;;
9108;SDS011;4590;51.462;6.692;2023-02-28T04:25:03;6.03;;;3.20;;
9108;SDS011;4590;51.462;6.692;2023-02-28T04:27:30;5.22;;;2.85;;
9108;SDS011;4590;51.462;6.692;2023-02-28T04:29:55;7.83;;;2.90;;
9108;SDS011;4590;51.462;6.692;2023-02-28T04:32:21;4.03;;;2.80;;
9108;SDS011;4590;51.462;6.692;2023-02-28T04:34:46;6.50;;;3.23;;
9108;SDS011;4590;51.462;6.692;2023-02-28T04:37:11;4.87;;;2.77;;
9108;SDS011;4590;51.462;6.692;2023-02-28T04:39:37;4.57;;;2.40;;
9108;SDS011;4590;51.462;6.692;2023-02-28T04:42:03;4.13;;;2.43;;
9108;SDS011;4590;51.462;6.692;2023-02-28T04:44:29;6.15;;;2.65;;
9108;SDS011;4590;51.462;6.692;2023-02-28T04:46:54;7.10;;;2.47;;
9108;SDS011;4590;51.462;6.692;2023-02-28T04:49:19;5.70;;;2.67;;
9108;SDS011;4590;51.462;6.692;2023-02-28T04:51:44;3.83;;;2.40;;
9108;SDS011;4590;51.462;6.692;2023-02-28T04:54:10;9.67;;;2.80;;
9108;SDS011;4590;51.462;6.692;2023-02-28T04:56:35;7.37;;;2.50;;
9108;SDS011;4590;51.462;6.692;2023-02-28T04:59:00;4.03;;;2.30;;
9108;SDS011;4590;51.462;6.692;2023-02-28T05:01:30;6.00;;;2.73;;
9108;SDS011;4590;51.462;6.692;2023-02-28T05:03:58;4.38;;;2.55;;
9108;SDS011;4590;51.462;6.692;2023-02-28T05:06:26;4.07;;;2.25;;
9108;SDS011;4590;51.462;6.692;2023-02-28T05:08:52;5.68;;;2.88;;
9108;SDS011;4590;51.462;6.692;2023-02-28T05:11:23;8.23;;;2.70;;
9108;SDS011;4590;51.462;6.692;2023-02-28T05:13:59;5.32;;;3.08;;
9108;SDS011;4590;51.462;6.692;2023-02-28T05:16:28;4.13;;;2.38;;
9108;SDS011;4590;51.462;6.692;2023-02-28T05:18:54;5.30;;;2.57;;
9108;SDS011;4590;51.462;6.692;2023-02-28T05:23:50;5.13;;;2.78;;
9108;SDS011;4590;51.462;6.692;2023-02-28T05:26:15;4.10;;;2.70;;
9108;SDS011;4590;51.462;6.692;2023-02-28T05:28:41;3.57;;;2.23;;
9108;SDS011;4590;51.462;6.692;2023-02-28T05:31:06;6.53;;;2.53;;
9108;SDS011;4590;51.462;6.692;2023-02-28T05:33:32;4.80;;;2.53;;
9108;SDS011;4590;51.462;6.692;2023-02-28T05:35:57;5.13;;;2.70;;
9108;SDS011;4590;51.462;6.692;2023-02-28T05:38:23;4.30;;;2.50;;
9108;SDS011;4590;51.462;6.692;2023-02-28T05:40:48;4.13;;;3.00;;
9108;SDS011;4590;51.462;6.692;2023-02-28T05:43:13;4.90;;;2.50;;
9108;SDS011;4590;51.462;6.692;2023-02-28T05:45:38;6.27;;;2.90;;
9108;SDS011;4590;51.462;6.692;2023-02-28T05:48:04;5.60;;;2.63;;
9108;SDS011;4590;51.462;6.692;2023-02-28T05:50:29;6.53;;;2.63;;
9108;SDS011;4590;51.462;6.692;2023-02-28T05:52:55;3.57;;;2.70;;
9108;SDS011;4590;51.462;6.692;2023-02-28T05:55:20;7.13;;;2.50;;
9108;SDS011;4590;51.462;6.692;2023-02-28T05:57:45;6.00;;;2.80;;
9108;SDS011;4590;51.462;6.692;2023-02-28T06:00:10;4.37;;;2.70;;
9108;SDS011;4590;51.462;6.692;2023-02-28T06:02:38;5.70;;;2.60;;
9108;SDS011;4590;51.462;6.692;2023-02-28T06:05:04;3.28;;;2.17;;
9108;SDS011;4590;51.462;6.692;2023-02-28T06:07:29;4.00;;;2.67;;
9108;SDS011;4590;51.462;6.692;2023-02-28T06:09:54;6.10;;;2.43;;
9108;SDS011;4590;51.462;6.692;2023-02-28T06:12:20;4.20;;;2.50;;
9108;SDS011;4590;51.462;6.692;2023-02-28T06:14:45;4.37;;;2.70;;
9108;SDS011;4590;51.462;6.692;2023-02-28T06:17:10;3.73;;;2.43;;
9108;SDS011;4590;51.462;6.692;2023-02-28T06:19:39;6.50;;;2.97;;
9108;SDS011;4590;51.462;6.692;2023-02-28T06:22:06;5.40;;;2.63;;
9108;SDS011;4590;51.462;6.692;2023-02-28T06:24:31;5.60;;;2.60;;
9108;SDS011;4590;51.462;6.692;2023-02-28T06:26:57;4.05;;;2.45;;
9108;SDS011;4590;51.462;6.692;2023-02-28T06:29:29;6.53;;;2.88;;
9108;SDS011;4590;51.462;6.692;2023-02-28T06:31:55;3.90;;;2.60;;
9108;SDS011;4590;51.462;6.692;2023-02-28T06:34:20;4.87;;;2.57;;
9108;SDS011;4590;51.462;6.692;2023-02-28T06:36:45;5.83;;;2.63;;
9108;SDS011;4590;51.462;6.692;2023-02-28T06:39:10;5.03;;;2.67;;
9108;SDS011;4590;51.462;6.692;2023-02-28T06:41:36;3.83;;;2.53;;
9108;SDS011;4590;51.462;6.692;2023-02-28T06:44:03;4.50;;;2.90;;
9108;SDS011;4590;51.462;6.692;2023-02-28T06:46:30;7.88;;;2.78;;
9108;SDS011;4590;51.462;6.692;2023-02-28T06:48:56;5.40;;;3.10;;
9108;SDS011;4590;51.462;6.692;2023-02-28T06:51:21;6.27;;;3.30;;
9108;SDS011;4590;51.462;6.692;2023-02-28T06:53:47;5.32;;;2.75;;
9108;SDS011;4590;51.462;6.692;2023-02-28T06:56:13;6.03;;;3.17;;
9108;SDS011;4590;51.462;6.692;2023-02-28T06:58:40;5.97;;;3.15;;
9108;SDS011;4590;51.462;6.692;2023-02-28T07:01:06;5.23;;;3.20;;
9108;SDS011;4590;51.462;6.692;2023-02-28T07:03:34;6.50;;;2.88;;
9108;SDS011;4590;51.462;6.692;2023-02-28T07:06:00;6.22;;;3.70;;
9108;SDS011;4590;51.462;6.692;2023-02-28T07:08:26;6.47;;;3.33;;
9108;SDS011;4590;51.462;6.692;2023-02-28T07:10:57;4.63;;;2.90;;
9108;SDS011;4590;51.462;6.692;2023-02-28T07:13:23;6.07;;;2.97;;
9108;SDS011;4590;51.462;6.692;2023-02-28T07:15:53;7.05;;;3.40;;
9108;SDS011;4590;51.462;6.692;2023-02-28T07:18:19;7.00;;;3.10;;
9108;SDS011;4590;51.462;6.692;2023-02-28T07:20:44;5.27;;;2.93;;
9108;SDS011;4590;51.462;6.692;2023-02-28T07:23:10;5.10;;;3.00;;
9108;SDS011;4590;51.462;6.692;2023-02-28T07:25:35;5.23;;;2.60;;
9108;SDS011;4590;51.462;6.692;2023-02-28T07:28:00;7.40;;;3.23;;
9108;SDS011;4590;51.462;6.692;2023-02-28T07:30:26;7.43;;;3.40;;
9108;SDS011;4590;51.462;6.692;2023-02-28T07:32:51;6.83;;;3.47;;
9108;SDS011;4590;51.462;6.692;2023-02-28T07:35:16;7.87;;;3.57;;
9108;SDS011;4590;51.462;6.692;2023-02-28T07:37:42;8.43;;;3.40;;
9108;SDS011;4590;51.462;6.692;2023-02-28T07:40:08;6.20;;;3.63;;
9108;SDS011;4590;51.462;6.692;2023-02-28T07:42:39;9.10;;;3.88;;
9108;SDS011;4590;51.462;6.692;2023-02-28T07:45:05;9.60;;;3.33;;
9108;SDS011;4590;51.462;6.692;2023-02-28T07:47:32;6.18;;;3.28;;
9108;SDS011;4590;51.462;6.692;2023-02-28T07:49:57;6.30;;;3.27;;
9108;SDS011;4590;51.462;6.692;2023-02-28T07:52:23;8.02;;;3.45;;
9108;SDS011;4590;51.462;6.692;2023-02-28T07:54:49;9.55;;;3.40;;
9108;SDS011;4590;51.462;6.692;2023-02-28T07:57:15;6.57;;;3.33;;
9108;SDS011;4590;51.462;6.692;2023-02-28T07:59:41;7.27;;;3.30;;
9108;SDS011;4590;51.462;6.692;2023-02-28T08:02:06;7.23;;;3.33;;
9108;SDS011;4590;51.462;6.692;2023-02-28T08:04:32;9.10;;;3.30;;
9108;SDS011;4590;51.462;6.692;2023-02-28T08:06:57;5.47;;;2.47;;
9108;SDS011;4590;51.462;6.692;2023-02-28T08:09:23;6.27;;;3.00;;
9108;SDS011;4590;51.462;6.692;2023-02-28T08:11:48;12.47;;;3.37;;
9108;SDS011;4590;51.462;6.692;2023-02-28T08:14:14;4.80;;;2.80;;
9108;SDS011;4590;51.462;6.692;2023-02-28T08:16:39;6.30;;;2.70;;
9108;SDS011;4590;51.462;6.692;2023-02-28T08:19:04;7.23;;;2.77;;
9108;SDS011;4590;51.462;6.692;2023-02-28T08:21:30;4.83;;;2.97;;
9108;SDS011;4590;51.462;6.692;2023-02-28T08:23:55;9.20;;;2.63;;
9108;SDS011;4590;51.462;6.692;2023-02-28T08:26:21;7.20;;;2.80;;
9108;SDS011;4590;51.462;6.692;2023-02-28T08:28:47;5.40;;;2.75;;
9108;SDS011;4590;51.462;6.692;2023-02-28T08:31:13;3.73;;;2.73;;
9108;SDS011;4590;51.462;6.692;2023-02-28T08:33:40;5.30;;;2.38;;
9108;SDS011;4590;51.462;6.692;2023-02-28T08:36:07;7.82;;;3.17;;
9108;SDS011;4590;51.462;6.692;2023-02-28T08:38:33;6.40;;;3.17;;
9108;SDS011;4590;51.462;6.692;2023-02-28T08:40:59;5.43;;;2.63;;
9108;SDS011;4590;51.462;6.692;2023-02-28T08:43:28;7.20;;;2.60;;
9108;SDS011;4590;51.462;6.692;2023-02-28T08:45:54;6.72;;;2.67;;
9108;SDS011;4590;51.462;6.692;2023-02-28T08:48:21;4.13;;;2.88;;
9108;SDS011;4590;51.462;6.692;2023-02-28T08:51:00;5.85;;;2.95;;
9108;SDS011;4590;51.462;6.692;2023-02-28T08:53:28;7.03;;;2.78;;
9108;SDS011;4590;51.462;6.692;2023-02-28T08:55:58;4.13;;;2.30;;
9108;SDS011;4590;51.462;6.692;2023-02-28T08:58:24;4.03;;;2.38;;
9108;SDS011;4590;51.462;6.692;2023-02-28T09:00:50;4.93;;;2.97;;
9108;SDS011;4590;51.462;6.692;2023-02-28T09:03:15;3.30;;;2.28;;
9108;SDS011;4590;51.462;6.692;2023-02-28T09:05:42;4.95;;;2.45;;
9108;SDS011;4590;51.462;6.692;2023-02-28T09:08:16;4.65;;;2.72;;
9108;SDS011;4590;51.462;6.692;2023-02-28T09:10:42;4.57;;;2.20;;
9108;SDS011;4590;51.462;6.692;2023-02-28T09:13:07;3.80;;;2.57;;
9108;SDS011;4590;51.462;6.692;2023-02-28T09:15:32;4.03;;;2.50;;
9108;SDS011;4590;51.462;6.692;2023-02-28T09:17:57;6.23;;;2.03;;
9108;SDS011;4590;51.462;6.692;2023-02-28T09:20:23;6.03;;;2.33;;
9108;SDS011;4590;51.462;6.692;2023-02-28T09:22:48;3.93;;;1.83;;
9108;SDS011;4590;51.462;6.692;2023-02-28T09:25:15;2.63;;;1.93;;
9108;SDS011;4590;51.462;6.692;2023-02-28T09:27:41;4.80;;;2.10;;
9108;SDS011;4590;51.462;6.692;2023-02-28T09:30:06;3.57;;;1.70;;
9108;SDS011;4590;51.462;6.692;2023-02-28T09:32:32;3.38;;;1.90;;
9108;SDS011;4590;51.462;6.692;2023-02-28T09:37:26;2.63;;;1.60;;
9108;SDS011;4590;51.462;6.692;2023-02-28T09:39:54;3.00;;;1.52;;
9108;SDS011;4590;51.462;6.692;2023-02-28T09:42:22;3.58;;;2.00;;
9108;SDS011;4590;51.462;6.692;2023-02-28T09:44:57;3.72;;;2.25;;
9108;SDS011;4590;51.462;6.692;2023-02-28T09:47:27;3.38;;;1.75;;
9108;SDS011;4590;51.462;6.692;2023-02-28T09:52:33;2.45;;;1.33;;
9108;SDS011;4590;51.462;6.692;2023-02-28T09:55:20;4.93;;;1.52;;
9108;SDS011;4590;51.462;6.692;2023-02-28T09:58:01;2.17;;;1.40;;
9108;SDS011;4590;51.462;6.692;2023-02-28T10:00:30;2.92;;;1.60;;
9108;SDS011;4590;51.462;6.692;2023-02-28T10:03:06;3.85;;;1.48;;
9108;SDS011;4590;51.462;6.692;2023-02-28T10:06:00;2.35;;;1.65;;
9108;SDS011;4590;51.462;6.692;2023-02-28T10:11:34;2.75;;;1.48;;
9108;SDS011;4590;51.462;6.692;2023-02-28T10:14:04;2.10;;;1.38;;
9108;SDS011;4590;51.462;6.692;2023-02-28T10:16:58;2.47;;;1.42;;
9108;SDS011;4590;51.462;6.692;2023-02-28T10:22:19;1.80;;;1.35;;
9108;SDS011;4590;51.462;6.692;2023-02-28T10:24:49;3.08;;;1.40;;
9108;SDS011;4590;51.462;6.692;2023-02-28T10:27:20;3.35;;;1.65;;
9108;SDS011;4590;51.462;6.692;2023-02-28T10:29:50;2.80;;;1.60;;
9108;SDS011;4590;51.462;6.692;2023-02-28T10:32:20;3.90;;;1.42;;
9108;SDS011;4590;51.462;6.692;2023-02-28T10:37:40;1.95;;;1.40;;
9108;SDS011;4590;51.462;6.692;2023-02-28T10:42:57;2.28;;;1.27;;
9108;SDS011;4590;51.462;6.692;2023-02-28T10:45:39;2.20;;;1.30;;
9108;SDS011;4590;51.462;6.692;2023-02-28T10:48:41;2.65;;;1.40;;
9108;SDS011;4590;51.462;6.692;2023-02-28T10:51:25;4.00;;;1.40;;
9108;SDS011;4590;51.462;6.692;2023-02-28T10:54:00;2.80;;;1.30;;
9108;SDS011;4590;51.462;6.692;2023-02-28T10:56:25;1.73;;;1.30;;
9108;SDS011;4590;51.462;6.692;2023-02-28T10:58:58;3.00;;;1.50;;
9108;SDS011;4590;51.462;6.692;2023-02-28T11:03:58;4.00;;;1.80;;
9108;SDS011;4590;51.462;6.692;2023-02-28T11:06:29;4.60;;;1.50;;
9108;SDS011;4590;51.462;6.692;2023-02-28T11:08:58;2.65;;;1.50;;
9108;SDS011;4590;51.462;6.692;2023-02-28T11:11:26;3.85;;;1.50;;
9108;SDS011;4590;51.462;6.692;2023-02-28T11:13:55;2.25;;;1.25;;
9108;SDS011;4590;51.462;6.692;2023-02-28T11:16:34;3.17;;;1.25;;
9108;SDS011;4590;51.462;6.692;2023-02-28T11:19:02;3.42;;;1.48;;
9108;SDS011;4590;51.462;6.692;2023-02-28T11:21:35;3.40;;;1.70;;
9108;SDS011;4590;51.462;6.692;2023-02-28T11:26:51;3.08;;;1.40;;
9108;SDS011;4590;51.462;6.692;2023-02-28T11:29:23;2.70;;;1.63;;
9108;SDS011;4590;51.462;6.692;2023-02-28T11:34:45;2.92;;;1.17;;
9108;SDS011;4590;51.462;6.692;2023-02-28T11:37:24;2.50;;;1.38;;
9108;SDS011;4590;51.462;6.692;2023-02-28T11:50:47;3.17;;;1.80;;
9108;SDS011;4590;51.462;6.692;2023-02-28T12:01:36;3.25;;;1.70;;
9108;SDS011;4590;51.462;6.692;2023-02-28T12:04:25;3.05;;;1.50;;
9108;SDS011;4590;51.462;6.692;2023-02-28T12:07:37;3.08;;;1.80;;
9108;SDS011;4590;51.462;6.692;2023-02-28T12:10:25;4.05;;;1.85;;
9108;SDS011;4590;51.462;6.692;2023-02-28T12:13:04;3.50;;;1.63;;
9108;SDS011;4590;51.462;6.692;2023-02-28T12:15:58;1.80;;;1.13;;
9108;SDS011;4590;51.462;6.692;2023-02-28T12:23:55;3.20;;;1.63;;
9108;SDS011;4590;51.462;6.692;2023-02-28T12:26:40;2.25;;;1.40;;
9108;SDS011;4590;51.462;6.692;2023-02-28T12:32:09;3.17;;;1.70;;
9108;SDS011;4590;51.462;6.692;2023-02-28T12:34:43;3.30;;;1.80;;
9108;SDS011;4590;51.462;6.692;2023-02-28T12:37:22;3.17;;;1.73;;
9108;SDS011;4590;51.462;6.692;2023-02-28T12:39:59;4.88;;;1.73;;
9108;SDS011;4590;51.462;6.692;2023-02-28T12:42:32;2.10;;;1.50;;
9108;SDS011;4590;51.462;6.692;2023-02-28T12:45:04;2.63;;;1.30;;
9108;SDS011;4590;51.462;6.692;2023-02-28T12:47:38;4.28;;;1.83;;
9108;SDS011;4590;51.462;6.692;2023-02-28T12:50:08;3.17;;;1.67;;
9108;SDS011;4590;51.462;6.692;2023-02-28T12:52:51;3.28;;;1.70;;
9108;SDS011;4590;51.462;6.692;2023-02-28T13:01:05;4.45;;;1.70;;
9108;SDS011;4590;51.462;6.692;2023-02-28T13:09:14;3.83;;;1.73;;
9108;SDS011;4590;51.462;6.692;2023-02-28T13:16:57;2.17;;;1.52;;
9108;SDS011;4590;51.462;6.692;2023-02-28T13:19:24;2.10;;;1.42;;
9108;SDS011;4590;51.462;6.692;2023-02-28T13:21:53;2.55;;;1.92;;
9108;SDS011;4590;51.462;6.692;2023-02-28T13:29:28;4.30;;;1.80;;
9108;SDS011;4590;51.462;6.692;2023-02-28T13:34:46;3.47;;;2.30;;
9108;SDS011;4590;51.462;6.692;2023-02-28T13:37:33;2.85;;;2.00;;
9108;SDS011;4590;51.462;6.692;2023-02-28T13:42:35;3.92;;;1.90;;
9108;SDS011;4590;51.462;6.692;2023-02-28T13:55:45;4.05;;;2.15;;
9108;SDS011;4590;51.462;6.692;2023-02-28T14:01:31;3.05;;;2.00;;
9108;SDS011;4590;51.462;6.692;2023-02-28T14:04:25;6.07;;;2.40;;
9108;SDS011;4590;51.462;6.692;2023-02-28T14:07:09;2.70;;;2.00;;
9108;SDS011;4590;51.462;6.692;2023-02-28T14:09:47;4.43;;;2.88;;
9108;SDS011;4590;51.462;6.692;2023-02-28T14:18:01;5.35;;;2.40;;
9108;SDS011;4590;51.462;6.692;2023-02-28T14:20:29;3.10;;;2.25;;
9108;SDS011;4590;51.462;6.692;2023-02-28T14:23:09;4.85;;;2.33;;
9108;SDS011;4590;51.462;6.692;2023-02-28T14:25:47;2.78;;;1.85;;
9108;SDS011;4590;51.462;6.692;2023-02-28T14:31:13;4.45;;;2.53;;
9108;SDS011;4590;51.462;6.692;2023-02-28T14:36:49;3.85;;;2.28;;
9108;SDS011;4590;51.462;6.692;2023-02-28T14:39:24;4.25;;;2.30;;
9108;SDS011;4590;51.462;6.692;2023-02-28T14:41:51;5.10;;;2.10;;
9108;SDS011;4590;51.462;6.692;2023-02-28T14:46:50;5.32;;;2.30;;
9108;SDS011;4590;51.462;6.692;2023-02-28T14:49:20;4.57;;;2.20;;
9108;SDS011;4590;51.462;6.692;2023-02-28T14:51:46;3.30;;;2.28;;
9108;SDS011;4590;51.462;6.692;2023-02-28T14:54:15;2.80;;;2.40;;
9108;SDS011;4590;51.462;6.692;2023-02-28T14:56:49;2.92;;;2.05;;
9108;SDS011;4590;51.462;6.692;2023-02-28T14:59:23;4.15;;;2.30;;
9108;SDS011;4590;51.462;6.692;2023-02-28T15:04:39;3.78;;;2.15;;
9108;SDS011;4590;51.462;6.692;2023-02-28T15:07:07;4.32;;;2.30;;
9108;SDS011;4590;51.462;6.692;2023-02-28T15:09:37;3.28;;;2.30;;
9108;SDS011;4590;51.462;6.692;2023-02-28T15:12:03;3.87;;;2.30;;
9108;SDS011;4590;51.462;6.692;2023-02-28T15:14:28;3.57;;;2.37;;
9108;SDS011;4590;51.462;6.692;2023-02-28T15:16:59;3.30;;;2.38;;
9108;SDS011;4590;51.462;6.692;2023-02-28T15:19:36;2.63;;;2.00;;
9108;SDS011;4590;51.462;6.692;2023-02-28T15:22:08;4.55;;;2.40;;
9108;SDS011;4590;51.462;6.692;2023-02-28T15:24:43;3.72;;;2.03;;
9108;SDS011;4590;51.462;6.692;2023-02-28T15:27:15;3.60;;;2.22;;
9108;SDS011;4590;51.462;6.692;2023-02-28T15:29:50;4.18;;;2.50;;
9108;SDS011;4590;51.462;6.692;2023-02-28T15:32:32;2.38;;;1.80;;
9108;SDS011;4590;51.462;6.692;2023-02-28T15:38:15;4.40;;;2.60;;
9108;SDS011;4590;51.462;6.692;2023-02-28T15:40:52;3.97;;;2.55;;
9108;SDS011;4590;51.462;6.692;2023-02-28T15:43:23;5.55;;;2.22;;
9108;SDS011;4590;51.462;6.692;2023-02-28T15:48:48;6.88;;;2.53;;
9108;SDS011;4590;51.462;6.692;2023-02-28T15:51:17;5.15;;;2.35;;
9108;SDS011;4590;51.462;6.692;2023-02-28T15:53:48;4.47;;;2.25;;
9108;SDS011;4590;51.462;6.692;2023-02-28T15:56:23;6.07;;;2.70;;
9108;SDS011;4590;51.462;6.692;2023-02-28T15:58:55;3.17;;;1.92;;
9108;SDS011;4590;51.462;6.692;2023-02-28T16:01:26;4.07;;;2.20;;
9108;SDS011;4590;51.462;6.692;2023-02-28T16:03:55;8.95;;;2.40;;
9108;SDS011;4590;51.462;6.692;2023-02-28T16:06:32;4.30;;;2.45;;
9108;SDS011;4590;51.462;6.692;2023-02-28T16:09:08;3.90;;;2.55;;
9108;SDS011;4590;51.462;6.692;2023-02-28T16:11:38;3.40;;;2.13;;
9108;SDS011;4590;51.462;6.692;2023-02-28T16:14:06;3.03;;;2.05;;
9108;SDS011;4590;51.462;6.692;2023-02-28T16:16:33;3.72;;;2.03;;
9108;SDS011;4590;51.462;6.692;2023-02-28T16:19:00;3.70;;;2.55;;
9108;SDS011;4590;51.462;6.692;2023-02-28T16:21:25;3.07;;;2.20;;
9108;SDS011;4590;51.462;6.692;2023-02-28T16:23:51;2.93;;;2.00;;
9108;SDS011;4590;51.462;6.692;2023-02-28T16:26:22;2.80;;;2.00;;
9108;SDS011;4590;51.462;6.692;2023-02-28T16:28:49;3.55;;;2.00;;
9108;SDS011;4590;51.462;6.692;2023-02-28T16:33:42;3.25;;;2.25;;
9108;SDS011;4590;51.462;6.692;2023-02-28T16:36:12;3.72;;;2.22;;
9108;SDS011;4590;51.462;6.692;2023-02-28T16:38:38;3.10;;;2.13;;
9108;SDS011;4590;51.462;6.692;2023-02-28T16:41:04;5.37;;;2.90;;
9108;SDS011;4590;51.462;6.692;2023-02-28T16:43:30;5.07;;;2.72;;
9108;SDS011;4590;51.462;6.692;2023-02-28T16:45:55;3.97;;;2.43;;
9108;SDS011;4590;51.462;6.692;2023-02-28T16:48:23;4.50;;;2.20;;
9108;SDS011;4590;51.462;6.692;2023-02-28T16:50:48;4.25;;;2.67;;
9108;SDS011;4590;51.462;6.692;2023-02-28T16:53:14;3.67;;;2.00;;
9108;SDS011;4590;51.462;6.692;2023-02-28T16:55:39;3.97;;;2.43;;
9108;SDS011;4590;51.462;6.692;2023-02-28T16:58:05;3.23;;;2.13;;
9108;SDS011;4590;51.462;6.692;2023-02-28T17:00:31;4.00;;;2.40;;
9108;SDS011;4590;51.462;6.692;2023-02-28T17:02:57;5.68;;;2.58;;
9108;SDS011;4590;51.462;6.692;2023-02-28T17:07:50;3.80;;;2.47;;
9108;SDS011;4590;51.462;6.692;2023-02-28T17:10:17;3.27;;;2.43;;
9108;SDS011;4590;51.462;6.692;2023-02-28T17:12:42;5.80;;;2.53;;
9108;SDS011;4590;51.462;6.692;2023-02-28T17:15:09;3.57;;;2.30;;
9108;SDS011;4590;51.462;6.692;2023-02-28T17:17:38;3.47;;;2.30;;
9108;SDS011;4590;51.462;6.692;2023-02-28T17:20:03;4.70;;;2.50;;
9108;SDS011;4590;51.462;6.692;2023-02-28T17:22:30;2.95;;;2.30;;
9108;SDS011;4590;51.462;6.692;2023-02-28T17:24:56;4.57;;;3.08;;
9108;SDS011;4590;51.462;6.692;2023-02-28T17:27:22;4.20;;;2.47;;
9108;SDS011;4590;51.462;6.692;2023-02-28T17:29:48;5.00;;;2.97;;
9108;SDS011;4590;51.462;6.692;2023-02-28T17:32:13;5.20;;;2.80;;
9108;SDS011;4590;51.462;6.692;2023-02-28T17:34:38;4.33;;;2.93;;
9108;SDS011;4590;51.462;6.692;2023-02-28T17:37:03;4.63;;;3.20;;
9108;SDS011;4590;51.462;6.692;2023-02-28T17:39:29;4.17;;;3.10;;
9108;SDS011;4590;51.462;6.692;2023-02-28T17:41:55;4.55;;;2.60;;
9108;SDS011;4590;51.462;6.692;2023-02-28T17:44:21;4.00;;;2.77;;
9108;SDS011;4590;51.462;6.692;2023-02-28T17:46:48;4.57;;;2.67;;
9108;SDS011;4590;51.462;6.692;2023-02-28T17:49:14;6.90;;;3.20;;
9108;SDS011;4590;51.462;6.692;2023-02-28T17:51:40;5.70;;;3.25;;
9108;SDS011;4590;51.462;6.692;2023-02-28T17:54:06;5.17;;;2.80;;
9108;SDS011;4590;51.462;6.692;2023-02-28T17:56:31;5.37;;;2.90;;
9108;SDS011;4590;51.462;6.692;2023-02-28T17:58:58;4.57;;;3.13;;
9108;SDS011;4590;51.462;6.692;2023-02-28T18:03:50;5.13;;;3.55;;
9108;SDS011;4590;51.462;6.692;2023-02-28T18:06:19;4.82;;;3.20;;
9108;SDS011;4590;51.462;6.692;2023-02-28T18:08:48;6.55;;;3.25;;